createdAt,value
2023-05-13T00:01:57.291Z,10.20
2023-05-13T00:04:23.765Z,8.35
2023-05-13T00:06:50.637Z,8.27
2023-05-13T00:09:17.101Z,11.32
2023-05-13T00:11:43.583Z,8.10
2023-05-13T00:14:10.866Z,8.38
2023-05-13T00:16:37.430Z,9.18
2023-05-13T00:19:04.033Z,10.73
2023-05-13T00:21:30.554Z,7.22
2023-05-13T00:23:57.116Z,8.75
2023-05-13T00:26:23.639Z,11.65
2023-05-13T00:28:50.548Z,9.00
2023-05-13T00:31:17.230Z,7.88
2023-05-13T00:33:43.862Z,10.85
2023-05-13T00:36:12.161Z,9.13
2023-05-13T00:38:38.901Z,8.95
2023-05-13T00:41:05.730Z,10.55
2023-05-13T00:43:32.279Z,10.55
2023-05-13T00:45:58.807Z,11.65
2023-05-13T00:48:25.599Z,8.88
2023-05-13T00:50:52.191Z,9.40
2023-05-13T00:53:18.824Z,8.98
2023-05-13T00:55:45.950Z,9.98
2023-05-13T00:58:13.019Z,9.88
2023-05-13T01:01:04.146Z,10.45
2023-05-13T01:03:41.134Z,10.15
2023-05-13T01:06:14.114Z,10.88
2023-05-13T01:09:08.951Z,10.45
2023-05-13T01:11:38.170Z,10.55
2023-05-13T01:14:32.896Z,11.52
2023-05-13T01:17:03.270Z,10.13
2023-05-13T01:19:42.943Z,10.68
2023-05-13T01:22:09.463Z,10.27
2023-05-13T01:24:36.216Z,11.50
2023-05-13T01:27:04.428Z,10.30
2023-05-13T01:29:30.947Z,10.23
2023-05-13T01:31:58.356Z,12.13
2023-05-13T01:34:25.389Z,11.30
2023-05-13T01:36:51.944Z,12.80
2023-05-13T01:39:20.413Z,12.82
2023-05-13T01:41:49.180Z,10.65
2023-05-13T01:44:15.769Z,10.85
2023-05-13T01:46:45.656Z,13.35
2023-05-13T01:49:12.745Z,10.65
2023-05-13T01:51:40.321Z,10.63
2023-05-13T01:54:06.989Z,12.55
2023-05-13T01:56:36.965Z,10.43
2023-05-13T01:59:03.455Z,10.38
2023-05-13T02:01:30.129Z,12.18
2023-05-13T02:04:00.274Z,12.40
2023-05-13T02:06:27.990Z,11.25
2023-05-13T02:08:54.902Z,10.18
2023-05-13T02:11:22.432Z,10.90
2023-05-13T02:13:48.943Z,11.13
2023-05-13T02:16:17.442Z,11.00
2023-05-13T02:18:44.080Z,9.77
2023-05-13T02:21:10.633Z,11.18
2023-05-13T02:23:37.084Z,10.32
2023-05-13T02:26:03.586Z,11.23
2023-05-13T02:28:30.082Z,10.10
2023-05-13T02:30:56.580Z,10.15
2023-05-13T02:33:23.323Z,14.15
2023-05-13T02:35:50.939Z,12.75
2023-05-13T02:38:17.506Z,10.43
2023-05-13T02:40:44.290Z,12.68
2023-05-13T02:43:11.068Z,10.55
2023-05-13T02:45:47.922Z,9.98
2023-05-13T02:48:15.990Z,10.07
2023-05-13T02:50:42.645Z,11.15
2023-05-13T02:53:10.435Z,9.77
2023-05-13T02:55:40.876Z,10.80
2023-05-13T02:58:09.082Z,11.57
2023-05-13T03:00:35.535Z,10.15
2023-05-13T03:03:02.243Z,10.40
2023-05-13T03:05:29.944Z,10.88
2023-05-13T03:07:57.818Z,15.70
2023-05-13T03:10:24.353Z,11.38
2023-05-13T03:12:50.958Z,11.70
2023-05-13T03:15:17.415Z,15.93
2023-05-13T03:17:44.454Z,11.90
2023-05-13T03:20:11.514Z,10.88
2023-05-13T03:22:40.928Z,11.05
2023-05-13T03:25:08.130Z,18.20
2023-05-13T03:27:41.082Z,12.52
2023-05-13T03:30:09.233Z,11.20
2023-05-13T03:32:43.339Z,11.38
2023-05-13T03:35:10.638Z,10.80
2023-05-13T03:37:38.805Z,17.02
2023-05-13T03:40:07.368Z,12.35
2023-05-13T03:42:35.400Z,11.63
2023-05-13T03:45:04.294Z,13.00
2023-05-13T03:47:33.021Z,15.77
2023-05-13T03:50:03.181Z,16.58
2023-05-13T03:55:03.553Z,13.10
2023-05-13T03:57:30.006Z,13.88
2023-05-13T03:59:56.589Z,14.45
2023-05-13T04:02:24.186Z,12.75
2023-05-13T04:04:51.054Z,12.57
2023-05-13T04:07:19.030Z,11.43
2023-05-13T04:09:45.541Z,12.75
2023-05-13T04:12:12.026Z,9.73
2023-05-13T04:14:40.022Z,9.80
2023-05-13T04:17:06.658Z,12.02
2023-05-13T04:19:33.309Z,12.82
2023-05-13T04:21:59.825Z,11.73
2023-05-13T04:24:26.355Z,11.05
2023-05-13T04:26:52.937Z,12.32
2023-05-13T04:29:19.992Z,9.68
2023-05-13T04:31:46.782Z,10.43
2023-05-13T04:34:13.386Z,9.90
2023-05-13T04:36:39.939Z,9.77
2023-05-13T04:39:07.826Z,10.13
2023-05-13T04:41:34.320Z,9.73
2023-05-13T04:44:00.917Z,9.20
2023-05-13T04:46:28.293Z,9.82
2023-05-13T04:48:54.827Z,9.48
2023-05-13T04:51:21.791Z,10.13
2023-05-13T04:53:49.116Z,12.07
2023-05-13T04:56:16.641Z,10.43
2023-05-13T04:58:43.477Z,19.50
2023-05-13T05:01:12.129Z,9.38
2023-05-13T05:03:38.951Z,9.45
2023-05-13T05:06:05.513Z,14.07
2023-05-13T05:08:32.055Z,10.73
2023-05-13T05:10:59.849Z,7.53
2023-05-13T05:13:26.405Z,9.13
2023-05-13T05:15:52.952Z,7.57
2023-05-13T05:18:19.498Z,7.13
2023-05-13T05:20:48.566Z,9.18
2023-05-13T05:23:17.277Z,7.13
2023-05-13T05:25:44.206Z,9.52
2023-05-13T05:28:10.831Z,8.95
2023-05-13T05:30:40.942Z,12.48
2023-05-13T05:35:41.628Z,7.43
2023-05-13T05:38:11.934Z,7.28
2023-05-13T05:40:40.916Z,6.90
2023-05-13T05:43:08.058Z,8.65
2023-05-13T05:45:35.930Z,8.15
2023-05-13T05:48:04.832Z,6.70
2023-05-13T05:50:31.759Z,13.00
2023-05-13T05:52:59.324Z,8.85
2023-05-13T05:55:28.389Z,7.13
2023-05-13T05:57:56.240Z,6.50
2023-05-13T06:00:24.093Z,8.95
2023-05-13T06:02:50.984Z,7.60
2023-05-13T06:05:18.444Z,8.23
2023-05-13T06:07:46.089Z,6.82
2023-05-13T06:10:12.699Z,10.55
2023-05-13T06:12:40.783Z,10.13
2023-05-13T06:15:10.874Z,6.30
2023-05-13T06:17:37.778Z,8.63
2023-05-13T06:20:06.763Z,7.65
2023-05-13T06:22:33.473Z,6.10
2023-05-13T06:25:00.026Z,9.90
2023-05-13T06:27:26.527Z,8.27
2023-05-13T06:29:53.074Z,9.95
2023-05-13T06:32:20.219Z,6.68
2023-05-13T06:34:48.356Z,8.45
2023-05-13T06:37:15.335Z,8.38
2023-05-13T06:39:42.014Z,9.20
2023-05-13T06:42:08.783Z,10.90
2023-05-13T06:44:43.070Z,7.90
2023-05-13T06:47:14.686Z,9.20
2023-05-13T06:49:42.373Z,11.20
2023-05-13T06:52:09.587Z,8.45
2023-05-13T06:54:36.067Z,7.72
2023-05-13T06:57:05.351Z,11.60
2023-05-13T06:59:31.853Z,11.30
2023-05-13T07:01:58.336Z,9.93
2023-05-13T07:04:24.842Z,11.15
2023-05-13T07:06:51.799Z,11.63
2023-05-13T07:09:18.253Z,10.27
2023-05-13T07:11:44.727Z,10.43
2023-05-13T07:14:11.546Z,9.50
2023-05-13T07:16:38.155Z,9.60
2023-05-13T07:19:05.056Z,11.38
2023-05-13T07:21:31.532Z,10.43
2023-05-13T07:23:57.980Z,10.23
2023-05-13T07:26:24.460Z,8.23
2023-05-13T07:28:50.933Z,10.23
2023-05-13T07:31:17.519Z,7.85
2023-05-13T07:33:44.049Z,7.28
2023-05-13T07:36:10.539Z,7.75
2023-05-13T07:38:37.122Z,7.65
2023-05-13T07:41:03.629Z,7.20
2023-05-13T07:43:30.128Z,6.75
2023-05-13T07:45:56.593Z,7.85
2023-05-13T07:48:25.199Z,7.65
2023-05-13T07:50:51.729Z,6.38
2023-05-13T07:53:19.760Z,8.65
2023-05-13T07:55:46.558Z,9.98
2023-05-13T07:58:13.062Z,8.23
2023-05-13T08:00:39.891Z,6.13
2023-05-13T08:03:09.841Z,7.03
2023-05-13T08:05:36.756Z,7.07
2023-05-13T08:08:04.398Z,5.82
2023-05-13T08:10:30.934Z,11.05
2023-05-13T08:12:57.890Z,9.05
2023-05-13T08:15:24.965Z,6.60
2023-05-13T08:17:53.374Z,5.82
2023-05-13T08:20:20.823Z,11.82
2023-05-13T08:22:47.723Z,7.22
2023-05-13T08:25:15.997Z,7.05
2023-05-13T08:27:42.527Z,6.28
2023-05-13T08:30:09.208Z,9.25
2023-05-13T08:32:35.783Z,6.78
2023-05-13T08:35:02.324Z,5.30
2023-05-13T08:37:28.796Z,6.70
2023-05-13T08:39:56.553Z,5.95
2023-05-13T08:42:23.958Z,5.93
2023-05-13T08:44:52.120Z,6.65
2023-05-13T08:47:44.883Z,5.25
2023-05-13T08:50:12.347Z,6.10
2023-05-13T08:52:39.539Z,4.68
2023-05-13T08:55:06.913Z,8.05
2023-05-13T08:57:33.437Z,7.93
2023-05-13T08:59:59.917Z,8.20
2023-05-13T09:02:26.556Z,6.53
2023-05-13T09:04:54.863Z,8.00
2023-05-13T09:07:21.412Z,11.88
2023-05-13T09:09:47.892Z,9.52
2023-05-13T09:12:50.383Z,5.53
2023-05-13T09:15:19.762Z,6.28
2023-05-13T09:17:52.409Z,6.07
2023-05-13T09:20:20.198Z,8.73
2023-05-13T09:22:48.375Z,6.50
2023-05-13T09:25:16.352Z,7.13
2023-05-13T09:27:46.151Z,5.72
2023-05-13T09:30:12.863Z,6.82
2023-05-13T09:32:40.108Z,8.25
2023-05-13T09:35:17.558Z,6.10
2023-05-13T09:37:48.228Z,8.07
2023-05-13T09:40:16.318Z,6.85
2023-05-13T09:42:44.031Z,7.10
2023-05-13T09:45:12.169Z,6.05
2023-05-13T09:47:38.990Z,5.85
2023-05-13T09:50:06.322Z,8.63
2023-05-13T09:52:34.099Z,5.70
2023-05-13T09:55:01.492Z,8.93
2023-05-13T09:57:28.542Z,5.47
2023-05-13T10:00:01.937Z,7.53
2023-05-13T10:02:37.589Z,6.43
2023-05-13T10:05:05.583Z,4.43
2023-05-13T10:07:34.440Z,3.90
2023-05-13T10:10:02.126Z,7.97
2023-05-13T10:12:31.033Z,4.07
2023-05-13T10:14:58.384Z,5.22
2023-05-13T10:17:26.107Z,4.35
2023-05-13T10:19:54.107Z,4.97
2023-05-13T10:22:29.283Z,5.40
2023-05-13T10:24:57.955Z,5.88
2023-05-13T10:27:29.408Z,4.65
2023-05-13T10:29:57.494Z,5.30
2023-05-13T10:32:25.357Z,5.05
2023-05-13T10:34:56.867Z,3.78
2023-05-13T10:37:42.111Z,4.82
2023-05-13T10:40:46.483Z,3.55
2023-05-13T10:43:26.066Z,3.63
2023-05-13T10:45:57.332Z,6.35
2023-05-13T10:48:24.030Z,5.07
2023-05-13T10:50:55.002Z,5.18
2023-05-13T10:53:32.484Z,3.03
2023-05-13T10:55:59.905Z,3.38
2023-05-13T10:58:31.049Z,3.80
2023-05-13T11:01:21.192Z,5.82
2023-05-13T11:03:55.658Z,3.65
2023-05-13T11:06:24.318Z,7.90
2023-05-13T11:08:53.603Z,4.30
2023-05-13T11:11:22.359Z,8.63
2023-05-13T11:14:15.835Z,2.17
2023-05-13T11:17:00.390Z,2.50
2023-05-13T11:19:29.279Z,4.47
2023-05-13T11:22:16.656Z,5.57
2023-05-13T11:24:47.616Z,3.33
2023-05-13T11:27:16.292Z,3.15
2023-05-13T11:29:53.743Z,3.10
2023-05-13T11:32:51.621Z,6.20
2023-05-13T11:35:20.358Z,3.83
2023-05-13T11:37:47.146Z,6.50
2023-05-13T11:40:21.867Z,7.05
2023-05-13T11:42:48.480Z,3.92
2023-05-13T11:45:16.839Z,5.57
2023-05-13T11:47:44.080Z,3.45
2023-05-13T11:50:21.030Z,3.20
2023-05-13T11:52:52.582Z,4.10
2023-05-13T11:55:34.049Z,4.15
2023-05-13T11:58:00.860Z,3.42
2023-05-13T12:00:31.332Z,4.93
2023-05-13T12:02:58.743Z,6.28
2023-05-13T12:05:26.478Z,6.05
2023-05-13T12:07:57.193Z,4.15
2023-05-13T12:10:24.659Z,5.57
2023-05-13T12:12:51.669Z,3.22
2023-05-13T12:15:19.512Z,3.47
2023-05-13T12:17:46.335Z,4.05
2023-05-13T12:20:20.837Z,6.03
2023-05-13T12:22:47.303Z,5.20
2023-05-13T12:25:33.419Z,4.93
2023-05-13T12:28:00.104Z,4.47
2023-05-13T12:30:33.878Z,4.15
2023-05-13T12:33:00.372Z,4.07
2023-05-13T12:35:26.877Z,5.97
2023-05-13T12:38:01.246Z,6.53
2023-05-13T12:40:27.696Z,8.52
2023-05-13T12:43:01.890Z,3.72
2023-05-13T12:45:32.825Z,5.40
2023-05-13T12:48:00.536Z,6.82
2023-05-13T12:50:27.282Z,5.47
2023-05-13T12:52:53.938Z,4.10
2023-05-13T12:55:20.605Z,5.28
2023-05-13T12:57:59.534Z,7.90
2023-05-13T13:00:26.739Z,7.55
2023-05-13T13:02:53.929Z,6.55
2023-05-13T13:05:21.563Z,4.15
2023-05-13T13:07:48.504Z,6.10
2023-05-13T13:10:15.113Z,4.88
2023-05-13T13:12:42.194Z,13.70
2023-05-13T13:15:10.519Z,5.50
2023-05-13T13:17:37.480Z,6.50
2023-05-13T13:20:07.574Z,3.85
2023-05-13T13:22:36.871Z,3.53
2023-05-13T13:25:06.925Z,5.72
2023-05-13T13:27:34.666Z,4.18
2023-05-13T13:30:01.159Z,5.72
2023-05-13T13:32:27.721Z,3.67
2023-05-13T13:34:54.280Z,5.50
2023-05-13T13:37:20.820Z,3.92
2023-05-13T13:39:49.016Z,4.40
2023-05-13T13:42:16.051Z,4.03
2023-05-13T13:44:42.646Z,5.28
2023-05-13T13:47:09.473Z,3.83
2023-05-13T13:49:35.966Z,7.63
2023-05-13T13:52:02.416Z,2.47
2023-05-13T13:54:28.904Z,6.22
2023-05-13T13:56:55.373Z,5.35
2023-05-13T13:59:21.835Z,5.25
2023-05-13T14:01:48.333Z,3.15
2023-05-13T14:04:17.120Z,3.78
2023-05-13T14:06:44.656Z,3.08
2023-05-13T14:09:11.127Z,5.95
2023-05-13T14:11:37.767Z,2.67
2023-05-13T14:14:04.290Z,3.33
2023-05-13T14:16:30.904Z,4.88
2023-05-13T14:18:57.491Z,13.57
2023-05-13T14:21:24.030Z,7.10
2023-05-13T14:23:50.632Z,7.97
2023-05-13T14:26:17.172Z,5.72
2023-05-13T14:28:43.822Z,12.98
2023-05-13T14:31:10.393Z,5.95
2023-05-13T14:33:37.052Z,7.97
2023-05-13T14:36:03.675Z,6.53
2023-05-13T14:38:31.147Z,6.13
2023-05-13T14:40:58.244Z,11.68
2023-05-13T14:43:25.039Z,7.30
2023-05-13T14:45:51.575Z,5.45
2023-05-13T14:48:19.137Z,6.25
2023-05-13T14:50:46.418Z,5.30
2023-05-13T14:53:12.995Z,5.55
2023-05-13T14:55:39.511Z,5.80
2023-05-13T14:58:08.957Z,8.27
2023-05-13T15:00:37.668Z,6.65
2023-05-13T15:03:04.518Z,5.55
2023-05-13T15:05:31.127Z,8.13
2023-05-13T15:07:58.838Z,4.68
2023-05-13T15:10:25.512Z,4.25
2023-05-13T15:12:51.985Z,4.57
2023-05-13T15:15:18.501Z,6.13
2023-05-13T15:17:45.194Z,4.90
2023-05-13T15:20:12.186Z,6.63
2023-05-13T15:22:38.622Z,5.25
2023-05-13T15:25:05.695Z,4.63
2023-05-13T15:27:32.135Z,7.07
2023-05-13T15:29:58.624Z,4.72
2023-05-13T15:32:25.086Z,4.68
2023-05-13T15:34:51.573Z,4.90
2023-05-13T15:37:18.012Z,5.00
2023-05-13T15:39:44.760Z,5.00
2023-05-13T15:42:11.209Z,5.70
2023-05-13T15:44:37.732Z,8.13
2023-05-13T15:47:06.024Z,5.18
2023-05-13T15:49:33.314Z,6.18
2023-05-13T15:52:00.441Z,4.45
2023-05-13T15:54:26.972Z,5.70
2023-05-13T15:56:55.569Z,4.63
2023-05-13T15:59:22.479Z,4.95
2023-05-13T16:01:49.111Z,6.53
2023-05-13T16:04:16.163Z,9.88
2023-05-13T16:06:42.632Z,4.65
2023-05-13T16:09:09.246Z,4.95
2023-05-13T16:11:35.848Z,6.88
2023-05-13T16:14:02.357Z,5.57
2023-05-13T16:16:28.847Z,4.32
2023-05-13T16:18:55.534Z,3.83
2023-05-13T16:21:22.058Z,6.80
2023-05-13T16:23:48.630Z,4.20
2023-05-13T16:26:15.106Z,5.05
2023-05-13T16:28:41.558Z,7.32
2023-05-13T16:31:08.067Z,5.25
2023-05-13T16:33:36.169Z,3.90
2023-05-13T16:36:02.664Z,4.18
2023-05-13T16:38:30.349Z,4.55
2023-05-13T16:40:56.889Z,4.43
2023-05-13T16:43:23.395Z,6.15
2023-05-13T16:45:49.883Z,7.93
2023-05-13T16:48:16.379Z,6.97
2023-05-13T16:50:43.026Z,5.45
2023-05-13T16:53:09.636Z,5.95
2023-05-13T16:55:36.106Z,5.57
2023-05-13T16:58:02.564Z,7.82
2023-05-13T17:00:29.058Z,7.38
2023-05-13T17:02:55.614Z,4.85
2023-05-13T17:05:22.130Z,5.47
2023-05-13T17:07:48.564Z,4.68
2023-05-13T17:10:15.123Z,4.55
2023-05-13T17:12:41.594Z,4.68
2023-05-13T17:15:08.420Z,4.72
2023-05-13T17:17:34.929Z,6.32
2023-05-13T17:20:01.464Z,6.28
2023-05-13T17:22:27.960Z,4.38
2023-05-13T17:24:54.416Z,9.43
2023-05-13T17:27:21.546Z,9.13
2023-05-13T17:29:48.008Z,5.78
2023-05-13T17:32:14.522Z,5.10
2023-05-13T17:34:40.988Z,6.57
2023-05-13T17:37:07.495Z,4.90
2023-05-13T17:39:33.963Z,5.00
2023-05-13T17:42:00.468Z,5.20
2023-05-13T17:44:27.052Z,4.63
2023-05-13T17:46:54.450Z,4.07
2023-05-13T17:49:21.090Z,4.68
2023-05-13T17:51:47.622Z,4.18
2023-05-13T17:54:14.191Z,5.03
2023-05-13T17:56:40.693Z,4.65
2023-05-13T17:59:07.259Z,4.43
2023-05-13T18:01:33.767Z,5.53
2023-05-13T18:04:00.854Z,3.85
2023-05-13T18:06:27.318Z,4.50
2023-05-13T18:08:54.039Z,3.85
2023-05-13T18:11:22.045Z,4.13
2023-05-13T18:13:48.700Z,4.30
2023-05-13T18:16:16.135Z,4.40
2023-05-13T18:18:44.429Z,8.20
2023-05-13T18:21:10.931Z,4.30
2023-05-13T18:23:37.418Z,4.18
2023-05-13T18:26:03.920Z,3.90
2023-05-13T18:28:30.468Z,3.65
2023-05-13T18:30:56.922Z,4.10
2023-05-13T18:33:23.415Z,5.30
2023-05-13T18:35:50.078Z,6.57
2023-05-13T18:38:16.545Z,7.82
2023-05-13T18:40:43.075Z,6.13
2023-05-13T18:43:09.598Z,6.20
2023-05-13T18:45:36.166Z,5.45
2023-05-13T18:48:02.851Z,7.45
2023-05-13T18:50:29.484Z,4.75
2023-05-13T18:52:56.243Z,4.97
2023-05-13T18:55:22.720Z,5.28
2023-05-13T18:57:49.438Z,5.78
2023-05-13T19:00:16.231Z,5.13
2023-05-13T19:02:42.947Z,5.38
2023-05-13T19:05:09.694Z,4.85
2023-05-13T19:07:36.896Z,5.75
2023-05-13T19:10:03.418Z,6.00
2023-05-13T19:12:29.881Z,6.57
2023-05-13T19:14:56.347Z,5.25
2023-05-13T19:17:22.813Z,6.72
2023-05-13T19:19:49.364Z,6.05
2023-05-13T19:22:15.836Z,7.13
2023-05-13T19:24:42.461Z,7.85
2023-05-13T19:27:09.010Z,7.07
2023-05-13T19:29:35.623Z,6.65
2023-05-13T19:32:02.099Z,6.95
2023-05-13T19:34:28.565Z,7.07
2023-05-13T19:36:55.796Z,6.88
2023-05-13T19:39:22.368Z,7.70
2023-05-13T19:41:48.896Z,7.20
2023-05-13T19:44:15.738Z,8.18
2023-05-13T19:46:42.409Z,7.53
2023-05-13T19:49:09.084Z,8.80
2023-05-13T19:51:35.707Z,8.35
2023-05-13T19:54:02.261Z,7.60
2023-05-13T19:56:28.896Z,7.95
2023-05-13T19:58:55.388Z,6.90
2023-05-13T20:01:21.916Z,7.05
2023-05-13T20:03:48.582Z,6.85
2023-05-13T20:06:15.143Z,6.85
2023-05-13T20:08:41.650Z,9.60
2023-05-13T20:11:08.136Z,7.20
2023-05-13T20:13:34.603Z,7.97
2023-05-13T20:16:01.186Z,9.27
2023-05-13T20:18:27.722Z,6.90
2023-05-13T20:20:54.285Z,6.35
2023-05-13T20:23:21.031Z,6.22
2023-05-13T20:25:47.601Z,6.35
2023-05-13T20:28:14.058Z,5.30
2023-05-13T20:30:42.614Z,6.20
2023-05-13T20:33:09.212Z,6.80
2023-05-13T20:35:36.918Z,7.50
2023-05-13T20:38:03.446Z,6.97
2023-05-13T20:40:29.972Z,5.90
2023-05-13T20:42:56.431Z,9.00
2023-05-13T20:45:22.925Z,7.53
2023-05-13T20:47:49.381Z,7.47
2023-05-13T20:50:16.146Z,6.03
2023-05-13T20:52:42.624Z,7.85
2023-05-13T20:55:09.356Z,5.80
2023-05-13T20:57:35.815Z,7.72
2023-05-13T21:00:02.334Z,9.70
2023-05-13T21:02:28.847Z,5.70
2023-05-13T21:04:55.721Z,7.40
2023-05-13T21:07:22.180Z,6.18
2023-05-13T21:09:48.640Z,6.07
2023-05-13T21:12:15.103Z,9.00
2023-05-13T21:14:41.647Z,6.90
2023-05-13T21:17:08.485Z,7.70
2023-05-13T21:19:35.224Z,7.53
2023-05-13T21:22:05.065Z,5.45
2023-05-13T21:24:31.899Z,7.03
2023-05-13T21:26:58.440Z,6.15
2023-05-13T21:29:24.884Z,5.93
2023-05-13T21:31:51.385Z,9.93
2023-05-13T21:34:17.911Z,6.70
2023-05-13T21:36:44.657Z,6.70
2023-05-13T21:39:11.150Z,6.80
2023-05-13T21:41:37.780Z,8.68
2023-05-13T21:44:04.324Z,6.28
2023-05-13T21:46:30.786Z,6.38
2023-05-13T21:48:59.533Z,6.03
2023-05-13T21:51:26.148Z,6.18
2023-05-13T21:53:52.662Z,6.15
2023-05-13T21:56:19.184Z,6.18
2023-05-13T21:58:45.657Z,8.75
2023-05-13T22:01:12.229Z,8.07
2023-05-13T22:03:38.902Z,8.70
2023-05-13T22:06:05.628Z,7.93
2023-05-13T22:08:32.872Z,10.73
2023-05-13T22:11:01.329Z,7.97
2023-05-13T22:13:28.124Z,7.75
2023-05-13T22:15:54.631Z,10.05
2023-05-13T22:18:22.569Z,6.82
2023-05-13T22:20:49.438Z,7.30
2023-05-13T22:23:16.048Z,10.25
2023-05-13T22:25:42.523Z,7.47
2023-05-13T22:28:08.965Z,9.18
2023-05-13T22:30:35.488Z,7.13
2023-05-13T22:33:01.988Z,7.93
2023-05-13T22:35:29.284Z,9.30
2023-05-13T22:37:55.768Z,9.32
2023-05-13T22:40:22.939Z,7.35
2023-05-13T22:42:49.603Z,9.32
2023-05-13T22:45:16.133Z,9.93
2023-05-13T22:47:42.663Z,8.20
2023-05-13T22:50:09.549Z,8.48
2023-05-13T22:52:36.067Z,7.95
2023-05-13T22:55:03.096Z,8.63
2023-05-13T22:57:29.637Z,9.02
2023-05-13T22:59:56.202Z,10.07
2023-05-13T23:02:23.595Z,8.93
2023-05-13T23:04:50.190Z,8.40
2023-05-13T23:07:16.720Z,7.57
2023-05-13T23:09:43.215Z,9.63
2023-05-13T23:12:09.804Z,8.50
2023-05-13T23:14:36.435Z,9.07
2023-05-13T23:17:02.932Z,8.75
2023-05-13T23:19:29.722Z,8.40
2023-05-13T23:21:56.235Z,8.25
2023-05-13T23:24:22.698Z,8.90
2023-05-13T23:26:49.204Z,8.48
2023-05-13T23:29:15.668Z,8.70
2023-05-13T23:31:42.170Z,9.20
2023-05-13T23:34:09.085Z,7.60
2023-05-13T23:36:35.663Z,8.35
2023-05-13T23:39:02.133Z,10.18
2023-05-13T23:41:28.668Z,9.15
2023-05-13T23:43:55.107Z,9.20
2023-05-13T23:46:21.696Z,8.48
2023-05-13T23:48:48.203Z,8.15
2023-05-13T23:51:14.669Z,8.52
2023-05-13T23:53:41.153Z,8.48
2023-05-13T23:56:07.771Z,8.43
2023-05-13T23:58:34.257Z,9.27
